createdAt,value
2022-12-03T00:00:37.594Z,14.10
2022-12-03T00:03:20.754Z,12.90
2022-12-03T00:05:49.005Z,15.65
2022-12-03T00:08:16.898Z,15.10
2022-12-03T00:10:43.688Z,16.40
2022-12-03T00:13:10.723Z,14.82
2022-12-03T00:15:37.598Z,15.20
2022-12-03T00:18:04.675Z,14.48
2022-12-03T00:20:31.383Z,14.40
2022-12-03T00:22:58.421Z,14.23
2022-12-03T00:25:25.228Z,14.05
2022-12-03T00:27:52.400Z,13.82
2022-12-03T00:30:19.186Z,14.05
2022-12-03T00:32:46.150Z,13.47
2022-12-03T00:35:12.807Z,15.07
2022-12-03T00:37:39.748Z,13.82
2022-12-03T00:40:07.118Z,12.20
2022-12-03T00:42:34.043Z,12.90
2022-12-03T00:45:00.818Z,15.37
2022-12-03T00:47:27.915Z,12.68
2022-12-03T00:49:54.620Z,14.88
2022-12-03T00:52:21.548Z,13.38
2022-12-03T00:54:48.848Z,15.32
2022-12-03T00:57:16.561Z,13.10
2022-12-03T00:59:43.243Z,12.45
2022-12-03T01:02:10.379Z,13.30
2022-12-03T01:04:37.500Z,13.82
2022-12-03T01:07:04.837Z,13.73
2022-12-03T01:09:31.836Z,13.90
2022-12-03T01:11:59.167Z,13.70
2022-12-03T01:14:26.368Z,13.13
2022-12-03T01:16:53.664Z,12.40
2022-12-03T01:19:20.389Z,13.40
2022-12-03T01:21:49.761Z,12.80
2022-12-03T01:24:17.872Z,12.50
2022-12-03T01:26:44.927Z,11.63
2022-12-03T01:29:11.613Z,11.60
2022-12-03T01:31:57.083Z,12.70
2022-12-03T01:34:23.765Z,11.87
2022-12-03T01:36:52.452Z,12.10
2022-12-03T01:39:19.852Z,12.63
2022-12-03T01:41:48.299Z,12.63
2022-12-03T01:44:28.573Z,12.93
2022-12-03T01:46:58.318Z,14.07
2022-12-03T01:49:43.022Z,11.70
2022-12-03T01:52:16.123Z,14.20
2022-12-03T01:54:47.569Z,13.25
2022-12-03T01:57:20.177Z,14.50
2022-12-03T01:59:47.341Z,13.80
2022-12-03T02:02:19.748Z,13.25
2022-12-03T02:04:47.125Z,14.48
2022-12-03T02:07:40.325Z,12.90
2022-12-03T02:10:07.372Z,13.50
2022-12-03T02:12:38.639Z,14.67
2022-12-03T02:15:07.079Z,13.93
2022-12-03T02:17:34.139Z,13.68
2022-12-03T02:20:01.735Z,11.85
2022-12-03T02:23:06.727Z,12.05
2022-12-03T02:25:35.592Z,13.47
2022-12-03T02:28:04.408Z,11.23
2022-12-03T02:30:32.211Z,11.85
2022-12-03T02:32:59.864Z,12.23
2022-12-03T02:35:30.518Z,10.75
2022-12-03T02:38:03.252Z,11.27
2022-12-03T02:40:32.583Z,11.57
2022-12-03T02:43:02.269Z,14.25
2022-12-03T02:45:32.389Z,11.85
2022-12-03T02:48:02.675Z,12.80
2022-12-03T02:50:33.897Z,13.13
2022-12-03T02:53:04.519Z,12.68
2022-12-03T02:55:37.131Z,12.45
2022-12-03T02:58:22.000Z,10.80
2022-12-03T03:00:49.721Z,11.55
2022-12-03T03:03:18.173Z,11.30
2022-12-03T03:05:45.437Z,11.18
2022-12-03T03:08:12.901Z,11.00
2022-12-03T03:10:41.528Z,11.02
2022-12-03T03:13:14.442Z,9.77
2022-12-03T03:15:42.278Z,10.90
2022-12-03T03:18:10.185Z,10.20
2022-12-03T03:20:37.784Z,10.57
2022-12-03T03:23:18.180Z,10.73
2022-12-03T03:25:49.724Z,10.07
2022-12-03T03:28:17.041Z,11.33
2022-12-03T03:30:44.414Z,10.35
2022-12-03T03:33:13.192Z,11.88
2022-12-03T03:35:40.717Z,10.25
2022-12-03T03:38:08.876Z,10.75
2022-12-03T03:40:37.010Z,10.30
2022-12-03T03:43:05.209Z,10.85
2022-12-03T03:45:31.875Z,11.15
2022-12-03T03:48:00.456Z,10.65
2022-12-03T03:50:29.317Z,10.80
2022-12-03T03:52:57.384Z,10.27
2022-12-03T03:55:24.513Z,9.35
2022-12-03T03:57:51.650Z,9.55
2022-12-03T04:00:18.845Z,9.82
2022-12-03T04:02:45.852Z,9.57
2022-12-03T04:05:19.905Z,9.17
2022-12-03T04:07:47.242Z,9.70
2022-12-03T04:10:40.558Z,10.60
2022-12-03T04:13:07.518Z,9.73
2022-12-03T04:15:34.163Z,8.73
2022-12-03T04:18:19.683Z,10.20
2022-12-03T04:20:46.334Z,10.95
2022-12-03T04:23:13.698Z,10.35
2022-12-03T04:25:58.939Z,8.63
2022-12-03T04:28:44.385Z,8.80
2022-12-03T04:31:29.449Z,8.67
2022-12-03T04:34:14.626Z,9.00
2022-12-03T04:36:41.243Z,8.73
2022-12-03T04:39:08.113Z,9.43
2022-12-03T04:41:34.893Z,9.45
2022-12-03T04:44:20.423Z,9.57
2022-12-03T04:46:47.078Z,9.10
2022-12-03T04:49:14.005Z,8.55
2022-12-03T04:51:40.645Z,8.18
2022-12-03T04:54:07.519Z,7.55
2022-12-03T04:56:34.367Z,8.23
2022-12-03T04:59:01.366Z,8.13
2022-12-03T05:01:28.170Z,8.15
2022-12-03T05:03:55.160Z,8.27
2022-12-03T05:06:22.328Z,8.63
2022-12-03T05:08:49.290Z,8.93
2022-12-03T05:11:15.965Z,7.90
2022-12-03T05:13:43.278Z,8.93
2022-12-03T05:16:10.362Z,9.57
2022-12-03T05:18:37.667Z,8.63
2022-12-03T05:21:04.447Z,7.20
2022-12-03T05:23:32.542Z,9.80
2022-12-03T05:25:59.259Z,9.90
2022-12-03T05:28:26.266Z,10.27
2022-12-03T05:30:53.084Z,10.23
2022-12-03T05:33:20.982Z,9.23
2022-12-03T05:35:47.662Z,9.50
2022-12-03T05:38:14.615Z,9.20
2022-12-03T05:40:41.358Z,8.90
2022-12-03T05:43:08.371Z,8.88
2022-12-03T05:45:40.108Z,9.00
2022-12-03T05:48:22.407Z,8.18
2022-12-03T05:50:49.054Z,9.43
2022-12-03T05:53:17.186Z,10.75
2022-12-03T05:55:43.876Z,9.23
2022-12-03T05:58:11.696Z,8.53
2022-12-03T06:00:42.482Z,8.23
2022-12-03T06:03:10.622Z,8.00
2022-12-03T06:05:37.723Z,8.60
2022-12-03T06:08:05.026Z,8.52
2022-12-03T06:10:32.495Z,8.60
2022-12-03T06:12:59.567Z,7.40
2022-12-03T06:15:26.370Z,7.90
2022-12-03T06:17:53.327Z,8.30
2022-12-03T06:20:21.389Z,8.68
2022-12-03T06:22:49.482Z,8.00
2022-12-03T06:25:16.831Z,7.85
2022-12-03T06:27:44.450Z,9.00
2022-12-03T06:30:13.982Z,9.02
2022-12-03T06:32:41.284Z,9.05
2022-12-03T06:35:08.388Z,8.93
2022-12-03T06:37:35.385Z,8.80
2022-12-03T06:40:02.044Z,9.35
2022-12-03T06:42:28.975Z,8.75
2022-12-03T06:44:56.124Z,8.90
2022-12-03T06:47:23.124Z,9.10
2022-12-03T06:49:50.035Z,9.32
2022-12-03T06:52:16.925Z,8.88
2022-12-03T06:54:43.531Z,9.43
2022-12-03T06:57:10.464Z,10.05
2022-12-03T06:59:37.619Z,9.63
2022-12-03T07:02:05.104Z,9.45
2022-12-03T07:04:31.862Z,10.02
2022-12-03T07:06:58.823Z,9.63
2022-12-03T07:09:25.512Z,9.10
2022-12-03T07:11:52.624Z,10.07
2022-12-03T07:14:19.400Z,11.27
2022-12-03T07:16:46.430Z,9.65
2022-12-03T07:19:13.325Z,10.02
2022-12-03T07:21:40.303Z,10.98
2022-12-03T07:24:07.154Z,9.73
2022-12-03T07:26:34.394Z,10.60
2022-12-03T07:29:01.158Z,9.10
2022-12-03T07:31:28.179Z,9.15
2022-12-03T07:33:54.986Z,9.30
2022-12-03T07:36:21.854Z,8.97
2022-12-03T07:38:48.863Z,7.57
2022-12-03T07:41:15.866Z,7.80
2022-12-03T07:43:42.644Z,7.47
2022-12-03T07:46:09.616Z,6.95
2022-12-03T07:48:36.357Z,7.13
2022-12-03T07:51:03.319Z,7.65
2022-12-03T07:53:29.985Z,6.80
2022-12-03T07:55:56.924Z,7.43
2022-12-03T07:58:23.582Z,7.20
2022-12-03T08:00:50.491Z,7.10
2022-12-03T08:03:17.129Z,6.97
2022-12-03T08:05:45.261Z,7.13
2022-12-03T08:08:11.908Z,7.25
2022-12-03T08:10:38.838Z,7.05
2022-12-03T08:13:13.096Z,7.23
2022-12-03T08:15:40.497Z,8.10
2022-12-03T08:18:20.881Z,7.35
2022-12-03T08:20:50.115Z,7.95
2022-12-03T08:23:18.203Z,8.13
2022-12-03T08:25:45.865Z,7.63
2022-12-03T08:28:16.950Z,7.65
2022-12-03T08:30:46.906Z,7.63
2022-12-03T08:33:18.542Z,7.70
2022-12-03T08:35:50.958Z,9.13
2022-12-03T08:38:21.979Z,7.97
2022-12-03T08:40:51.406Z,7.90
2022-12-03T08:43:22.565Z,7.10
2022-12-03T08:45:54.154Z,8.55
2022-12-03T08:48:32.991Z,8.05
2022-12-03T08:51:23.810Z,8.87
2022-12-03T08:54:01.826Z,8.20
2022-12-03T08:56:30.647Z,8.82
2022-12-03T08:59:23.733Z,8.93
2022-12-03T09:01:53.313Z,9.05
2022-12-03T09:04:36.020Z,7.47
2022-12-03T09:07:03.037Z,7.93
2022-12-03T09:09:29.888Z,8.70
2022-12-03T09:11:56.981Z,8.55
2022-12-03T09:14:23.953Z,9.75
2022-12-03T09:16:55.463Z,7.67
2022-12-03T09:19:27.335Z,7.95
2022-12-03T09:21:54.486Z,8.70
2022-12-03T09:24:21.275Z,8.68
2022-12-03T09:26:48.303Z,8.23
2022-12-03T09:29:15.056Z,7.80
2022-12-03T09:31:42.138Z,8.15
2022-12-03T09:34:10.581Z,8.98
2022-12-03T09:36:37.658Z,8.13
2022-12-03T09:39:04.891Z,8.23
2022-12-03T09:41:31.732Z,8.30
2022-12-03T09:44:06.491Z,8.55
2022-12-03T09:46:36.537Z,7.43
2022-12-03T09:49:05.176Z,8.00
2022-12-03T09:51:35.659Z,7.95
2022-12-03T09:54:05.647Z,8.03
2022-12-03T09:56:37.900Z,8.50
2022-12-03T09:59:14.008Z,7.78
2022-12-03T10:01:41.022Z,8.88
2022-12-03T10:04:08.054Z,8.60
2022-12-03T10:06:35.332Z,7.90
2022-12-03T10:09:02.199Z,8.85
2022-12-03T10:11:30.501Z,8.60
2022-12-03T10:13:58.498Z,7.93
2022-12-03T10:16:26.121Z,7.13
2022-12-03T10:18:56.209Z,9.60
2022-12-03T10:21:30.252Z,8.18
2022-12-03T10:24:23.341Z,9.32
2022-12-03T10:26:52.214Z,8.05
2022-12-03T10:29:22.010Z,7.93
2022-12-03T10:32:03.482Z,8.20
2022-12-03T10:34:42.854Z,7.78
2022-12-03T10:37:09.699Z,7.38
2022-12-03T10:39:55.924Z,9.05
2022-12-03T10:42:25.377Z,7.80
2022-12-03T10:45:14.565Z,7.23
2022-12-03T10:47:42.758Z,8.25
2022-12-03T10:50:17.921Z,7.65
2022-12-03T10:52:45.335Z,8.30
2022-12-03T10:55:16.092Z,8.57
2022-12-03T10:57:46.138Z,8.20
2022-12-03T11:00:19.232Z,7.88
2022-12-03T11:02:50.537Z,8.75
2022-12-03T11:05:26.843Z,7.82
2022-12-03T11:07:54.354Z,7.85
2022-12-03T11:10:21.466Z,7.40
2022-12-03T11:13:25.851Z,8.38
2022-12-03T11:15:53.305Z,8.05
2022-12-03T11:18:38.541Z,8.77
2022-12-03T11:21:11.582Z,8.38
2022-12-03T11:23:58.693Z,8.13
2022-12-03T11:26:37.725Z,8.20
2022-12-03T11:29:07.226Z,8.27
2022-12-03T11:31:40.748Z,8.80
2022-12-03T11:34:19.757Z,9.30
2022-12-03T11:37:11.747Z,8.93
2022-12-03T11:40:00.723Z,9.68
2022-12-03T11:42:36.899Z,8.75
2022-12-03T11:45:03.763Z,8.98
2022-12-03T11:47:41.452Z,8.68
2022-12-03T11:50:28.933Z,8.80
2022-12-03T11:53:08.605Z,7.82
2022-12-03T11:55:47.404Z,9.88
2022-12-03T11:58:42.959Z,8.15
2022-12-03T12:01:10.126Z,8.70
2022-12-03T12:03:48.945Z,9.07
2022-12-03T12:06:18.678Z,8.30
2022-12-03T12:08:51.486Z,8.02
2022-12-03T12:11:38.662Z,8.77
2022-12-03T12:14:07.491Z,8.32
2022-12-03T12:16:50.773Z,7.33
2022-12-03T12:19:52.657Z,9.10
2022-12-03T12:22:26.844Z,7.65
2022-12-03T12:25:01.820Z,8.38
2022-12-03T12:27:37.834Z,8.15
2022-12-03T12:30:18.784Z,7.67
2022-12-03T12:32:46.823Z,8.90
2022-12-03T12:35:18.854Z,8.52
2022-12-03T12:38:11.233Z,7.85
2022-12-03T12:40:40.468Z,8.27
2022-12-03T12:43:14.369Z,7.97
2022-12-03T12:45:44.653Z,8.43
2022-12-03T12:48:26.536Z,8.32
2022-12-03T12:50:59.630Z,7.50
2022-12-03T12:53:32.712Z,7.95
2022-12-03T12:56:01.632Z,8.87
2022-12-03T12:58:32.724Z,8.57
2022-12-03T13:01:05.763Z,8.38
2022-12-03T13:03:38.749Z,9.00
2022-12-03T13:06:06.140Z,8.57
2022-12-03T13:08:38.873Z,10.00
2022-12-03T13:11:06.445Z,11.23
2022-12-03T13:13:43.996Z,9.40
2022-12-03T13:16:28.418Z,8.25
2022-12-03T13:18:57.654Z,8.10
2022-12-03T13:21:38.288Z,8.67
2022-12-03T13:24:32.464Z,7.78
2022-12-03T13:27:05.072Z,8.00
2022-12-03T13:29:32.111Z,7.32
2022-12-03T13:32:01.896Z,6.85
2022-12-03T13:34:33.379Z,7.20
2022-12-03T13:37:13.669Z,7.75
2022-12-03T13:39:47.661Z,7.40
2022-12-03T13:42:32.870Z,7.82
2022-12-03T13:45:01.698Z,7.35
2022-12-03T13:47:28.664Z,7.67
2022-12-03T13:49:57.856Z,8.40
2022-12-03T13:52:25.829Z,8.20
2022-12-03T13:54:55.359Z,7.45
2022-12-03T13:57:22.666Z,7.45
2022-12-03T13:59:49.729Z,7.40
2022-12-03T14:02:16.497Z,6.65
2022-12-03T14:04:43.484Z,7.50
2022-12-03T14:07:10.094Z,7.93
2022-12-03T14:09:36.998Z,7.50
2022-12-03T14:12:22.368Z,7.40
2022-12-03T14:14:49.528Z,6.95
2022-12-03T14:17:16.207Z,6.95
2022-12-03T14:19:43.212Z,7.18
2022-12-03T14:22:10.112Z,7.43
2022-12-03T14:24:39.745Z,7.17
2022-12-03T14:27:06.437Z,7.15
2022-12-03T14:29:33.350Z,7.30
2022-12-03T14:32:00.056Z,6.78
2022-12-03T14:34:27.145Z,6.78
2022-12-03T14:36:53.913Z,6.27
2022-12-03T14:39:21.217Z,6.38
2022-12-03T14:42:06.537Z,7.63
2022-12-03T14:44:33.559Z,7.20
2022-12-03T14:47:00.275Z,6.93
2022-12-03T14:49:27.274Z,6.83
2022-12-03T14:51:54.198Z,7.70
2022-12-03T14:54:21.942Z,8.32
2022-12-03T14:56:48.709Z,8.63
2022-12-03T14:59:15.715Z,7.80
2022-12-03T15:01:42.920Z,7.43
2022-12-03T15:04:09.914Z,7.90
2022-12-03T15:06:37.123Z,7.45
2022-12-03T15:09:04.618Z,6.97
2022-12-03T15:11:31.690Z,6.50
2022-12-03T15:13:58.675Z,6.13
2022-12-03T15:16:25.477Z,6.78
2022-12-03T15:18:52.669Z,7.32
2022-12-03T15:21:19.390Z,6.88
2022-12-03T15:23:46.347Z,6.90
2022-12-03T15:26:12.962Z,7.10
2022-12-03T15:28:42.992Z,6.72
2022-12-03T15:31:12.444Z,6.45
2022-12-03T15:33:39.586Z,7.05
2022-12-03T15:36:06.957Z,7.22
2022-12-03T15:38:34.104Z,8.70
2022-12-03T15:41:20.770Z,8.45
2022-12-03T15:43:52.459Z,7.70
2022-12-03T15:46:19.991Z,8.40
2022-12-03T15:48:48.019Z,7.55
2022-12-03T15:51:14.851Z,8.60
2022-12-03T15:53:42.165Z,8.80
2022-12-03T15:56:08.922Z,7.20
2022-12-03T15:58:36.002Z,7.20
2022-12-03T16:01:02.768Z,7.22
2022-12-03T16:03:29.964Z,7.57
2022-12-03T16:05:56.932Z,7.32
2022-12-03T16:08:23.855Z,7.05
2022-12-03T16:10:50.498Z,6.88
2022-12-03T16:13:17.427Z,8.00
2022-12-03T16:15:44.208Z,7.10
2022-12-03T16:18:11.267Z,6.60
2022-12-03T16:20:39.175Z,6.55
2022-12-03T16:23:06.158Z,8.23
2022-12-03T16:25:32.784Z,6.90
2022-12-03T16:27:59.932Z,7.77
2022-12-03T16:30:26.755Z,7.43
2022-12-03T16:32:53.783Z,7.70
2022-12-03T16:35:21.144Z,7.28
2022-12-03T16:37:48.087Z,7.78
2022-12-03T16:40:14.877Z,7.47
2022-12-03T16:42:41.794Z,7.85
2022-12-03T16:45:09.148Z,8.23
2022-12-03T16:47:36.086Z,8.80
2022-12-03T16:50:11.573Z,7.47
2022-12-03T16:52:41.116Z,7.40
2022-12-03T16:55:08.378Z,7.47
2022-12-03T16:57:35.993Z,7.20
2022-12-03T17:00:03.522Z,6.53
2022-12-03T17:02:30.465Z,7.22
2022-12-03T17:04:57.215Z,7.17
2022-12-03T17:07:24.168Z,6.90
2022-12-03T17:09:50.841Z,6.97
2022-12-03T17:12:17.686Z,7.53
2022-12-03T17:14:44.278Z,7.65
2022-12-03T17:17:11.132Z,8.00
2022-12-03T17:19:37.826Z,8.20
2022-12-03T17:22:04.671Z,7.82
2022-12-03T17:24:31.315Z,7.40
2022-12-03T17:26:58.376Z,8.52
2022-12-03T17:29:25.004Z,7.60
2022-12-03T17:31:52.055Z,8.00
2022-12-03T17:34:18.752Z,8.73
2022-12-03T17:36:45.785Z,7.72
2022-12-03T17:39:12.519Z,7.32
2022-12-03T17:41:39.485Z,8.47
2022-12-03T17:44:10.665Z,7.80
2022-12-03T17:46:39.256Z,7.25
2022-12-03T17:49:05.950Z,9.23
2022-12-03T17:51:32.798Z,7.70
2022-12-03T17:54:00.564Z,8.73
2022-12-03T17:56:27.510Z,8.52
2022-12-03T17:58:54.125Z,9.10
2022-12-03T18:01:21.067Z,9.23
2022-12-03T18:03:47.808Z,9.45
2022-12-03T18:06:14.719Z,8.87
2022-12-03T18:08:41.330Z,9.32
2022-12-03T18:11:08.232Z,8.82
2022-12-03T18:13:35.064Z,9.38
2022-12-03T18:16:01.983Z,9.95
2022-12-03T18:18:28.685Z,9.47
2022-12-03T18:20:55.585Z,8.98
2022-12-03T18:23:22.239Z,9.63
2022-12-03T18:25:49.209Z,9.63
2022-12-03T18:28:16.201Z,10.00
2022-12-03T18:30:47.545Z,9.53
2022-12-03T18:33:17.451Z,9.23
2022-12-03T18:35:44.520Z,9.48
2022-12-03T18:38:17.139Z,9.77
2022-12-03T18:40:45.338Z,9.48
2022-12-03T18:43:13.598Z,9.27
2022-12-03T18:45:40.959Z,10.27
2022-12-03T18:48:19.096Z,9.60
2022-12-03T18:50:48.362Z,9.52
2022-12-03T18:53:17.894Z,9.63
2022-12-03T18:55:46.875Z,9.97
2022-12-03T18:58:13.495Z,9.65
2022-12-03T19:00:40.628Z,10.43
2022-12-03T19:03:07.345Z,10.38
2022-12-03T19:05:35.990Z,11.00
2022-12-03T19:08:03.455Z,10.20
2022-12-03T19:10:30.525Z,10.38
2022-12-03T19:12:57.185Z,8.75
2022-12-03T19:15:24.244Z,9.30
2022-12-03T19:17:51.469Z,9.50
2022-12-03T19:20:18.450Z,10.40
2022-12-03T19:22:45.212Z,11.80
2022-12-03T19:25:12.210Z,9.93
2022-12-03T19:27:38.901Z,9.23
2022-12-03T19:30:06.416Z,10.05
2022-12-03T19:32:34.469Z,10.93
2022-12-03T19:35:05.014Z,11.57
2022-12-03T19:37:33.542Z,11.55
2022-12-03T19:40:01.049Z,10.48
2022-12-03T19:42:27.888Z,10.65
2022-12-03T19:44:54.846Z,11.05
2022-12-03T19:47:24.557Z,11.23
2022-12-03T19:49:53.256Z,10.77
2022-12-03T19:52:20.286Z,10.38
2022-12-03T19:54:47.237Z,10.85
2022-12-03T19:57:17.916Z,10.82
2022-12-03T19:59:48.534Z,10.75
2022-12-03T20:02:15.223Z,11.13
2022-12-03T20:04:42.257Z,10.20
2022-12-03T20:07:08.882Z,12.00
2022-12-03T20:09:35.900Z,10.98
2022-12-03T20:12:02.518Z,10.95
2022-12-03T20:14:29.640Z,9.83
2022-12-03T20:16:56.625Z,10.68
2022-12-03T20:19:23.595Z,10.10
2022-12-03T20:21:50.231Z,11.50
2022-12-03T20:24:18.307Z,11.38
2022-12-03T20:26:45.423Z,11.20
2022-12-03T20:29:12.532Z,11.30
2022-12-03T20:31:39.524Z,12.38
2022-12-03T20:34:07.158Z,10.13
2022-12-03T20:36:34.170Z,12.80
2022-12-03T20:39:03.899Z,11.20
2022-12-03T20:41:31.071Z,10.50
2022-12-03T20:43:58.065Z,9.73
2022-12-03T20:46:27.561Z,10.32
2022-12-03T20:48:55.112Z,10.52
2022-12-03T20:51:24.667Z,10.50
2022-12-03T20:53:52.337Z,11.45
2022-12-03T20:56:21.941Z,10.63
2022-12-03T20:58:49.840Z,11.35
2022-12-03T21:01:19.532Z,11.15
2022-12-03T21:03:47.221Z,10.73
2022-12-03T21:06:15.062Z,10.20
2022-12-03T21:08:43.088Z,11.48
2022-12-03T21:11:18.471Z,10.63
2022-12-03T21:13:46.190Z,10.70
2022-12-03T21:16:15.438Z,9.63
2022-12-03T21:18:43.354Z,10.67
2022-12-03T21:21:14.744Z,10.85
2022-12-03T21:23:41.838Z,9.45
2022-12-03T21:26:11.536Z,10.50
2022-12-03T21:28:40.249Z,10.98
2022-12-03T21:31:09.590Z,9.57
2022-12-03T21:33:37.374Z,9.25
2022-12-03T21:36:05.264Z,9.40
2022-12-03T21:38:32.944Z,10.75
2022-12-03T21:41:00.357Z,11.27
2022-12-03T21:43:28.375Z,10.17
2022-12-03T21:45:55.343Z,10.52
2022-12-03T21:48:22.494Z,10.73
2022-12-03T21:51:01.190Z,11.02
2022-12-03T21:53:30.041Z,11.88
2022-12-03T21:55:56.792Z,9.33
2022-12-03T21:58:24.002Z,9.93
2022-12-03T22:00:51.270Z,9.98
2022-12-03T22:03:18.265Z,10.38
2022-12-03T22:05:45.368Z,11.35
2022-12-03T22:08:13.804Z,13.07
2022-12-03T22:10:41.520Z,11.00
2022-12-03T22:13:08.453Z,11.07
2022-12-03T22:15:38.947Z,10.52
2022-12-03T22:18:06.152Z,10.90
2022-12-03T22:20:32.891Z,9.53
2022-12-03T22:22:59.830Z,10.70
2022-12-03T22:25:26.454Z,10.48
2022-12-03T22:27:53.486Z,9.73
2022-12-03T22:30:20.371Z,11.13
2022-12-03T22:32:47.391Z,12.17
2022-12-03T22:35:14.379Z,11.15
2022-12-03T22:37:41.543Z,10.82
2022-12-03T22:40:08.490Z,11.32
2022-12-03T22:42:35.416Z,11.90
2022-12-03T22:45:02.193Z,13.20
2022-12-03T22:47:29.053Z,12.50
2022-12-03T22:49:55.966Z,12.68
2022-12-03T22:52:23.356Z,12.25
2022-12-03T22:54:50.058Z,12.18
2022-12-03T22:57:17.002Z,11.80
2022-12-03T22:59:43.806Z,12.25
2022-12-03T23:02:10.835Z,11.63
2022-12-03T23:04:37.465Z,12.02
2022-12-03T23:07:04.440Z,11.93
2022-12-03T23:09:31.060Z,11.27
2022-12-03T23:11:57.935Z,11.02
2022-12-03T23:14:24.532Z,10.52
2022-12-03T23:16:51.383Z,11.85
2022-12-03T23:19:19.844Z,11.13
2022-12-03T23:21:46.771Z,11.20
2022-12-03T23:24:13.418Z,11.90
2022-12-03T23:26:40.460Z,12.43
2022-12-03T23:29:08.542Z,11.90
2022-12-03T23:31:36.110Z,10.35
2022-12-03T23:34:03.926Z,10.73
2022-12-03T23:36:32.712Z,11.45
2022-12-03T23:38:59.667Z,12.75
2022-12-03T23:41:26.680Z,12.48
2022-12-03T23:43:53.364Z,9.35
2022-12-03T23:46:23.333Z,8.27
2022-12-03T23:48:51.520Z,11.38
2022-12-03T23:51:24.201Z,11.95
2022-12-03T23:53:52.864Z,12.15
2022-12-03T23:56:23.095Z,11.60
2022-12-03T23:58:50.343Z,9.07
